< < Back
Terminal Aerodrome Forecast


Current Version              Previous Versions:   1  2  3  4  5  6  7  8  9  

Terminal Aerodrome Forecast

259
FTUS42 KCHS 292320
TAFSAV
TAF
KSAV 292320Z 3000/3024 20005KT P6SM SCT250
     FM301900 17008KT P6SM SCT050=

Latest METAR

516
SAUS80 KWBC 301900
MTRSAV
METAR KSAV 301853Z 20008KT 10SM SCT049 OVC220 33/20 A2997 RMK AO2 SLP147
T03280200


USA.gov is the U.S. government's official web portal to all federal, state and local government web resources and services.